sensor_id;sensor_type;location;lat;lon;timestamp;P1;durP1;ratioP1;P2;durP2;ratioP2
9240;SDS011;53485;49.326;9.738;2022-07-09T00:00:32;2.33;;;0.90;;
9240;SDS011;53485;49.326;9.738;2022-07-09T00:03:00;3.63;;;0.80;;
9240;SDS011;53485;49.326;9.738;2022-07-09T00:05:27;4.07;;;0.80;;
9240;SDS011;53485;49.326;9.738;2022-07-09T00:07:55;2.43;;;0.80;;
9240;SDS011;53485;49.326;9.738;2022-07-09T00:10:22;2.03;;;0.93;;
9240;SDS011;53485;49.326;9.738;2022-07-09T00:12:49;1.63;;;0.70;;
9240;SDS011;53485;49.326;9.738;2022-07-09T00:15:17;2.57;;;0.70;;
9240;SDS011;53485;49.326;9.738;2022-07-09T00:17:44;3.40;;;0.70;;
9240;SDS011;53485;49.326;9.738;2022-07-09T00:20:12;1.43;;;0.60;;
9240;SDS011;53485;49.326;9.738;2022-07-09T00:22:39;1.63;;;0.90;;
9240;SDS011;53485;49.326;9.738;2022-07-09T00:25:07;3.60;;;1.03;;
9240;SDS011;53485;49.326;9.738;2022-07-09T00:27:34;1.30;;;0.80;;
9240;SDS011;53485;49.326;9.738;2022-07-09T00:30:01;2.07;;;0.90;;
9240;SDS011;53485;49.326;9.738;2022-07-09T00:32:28;1.40;;;0.90;;
9240;SDS011;53485;49.326;9.738;2022-07-09T00:34:55;1.97;;;0.80;;
9240;SDS011;53485;49.326;9.738;2022-07-09T00:37:23;1.47;;;0.87;;
9240;SDS011;53485;49.326;9.738;2022-07-09T00:39:50;1.77;;;0.90;;
9240;SDS011;53485;49.326;9.738;2022-07-09T00:42:17;2.13;;;1.00;;
9240;SDS011;53485;49.326;9.738;2022-07-09T00:44:45;2.20;;;0.80;;
9240;SDS011;53485;49.326;9.738;2022-07-09T00:47:12;2.20;;;0.87;;
9240;SDS011;53485;49.326;9.738;2022-07-09T00:49:41;2.20;;;0.70;;
9240;SDS011;53485;49.326;9.738;2022-07-09T00:52:13;1.60;;;0.80;;
9240;SDS011;53485;49.326;9.738;2022-07-09T00:54:34;1.00;;;0.70;;
9240;SDS011;53485;49.326;9.738;2022-07-09T00:57:01;2.43;;;1.07;;
9240;SDS011;53485;49.326;9.738;2022-07-09T00:59:28;0.93;;;0.77;;
9240;SDS011;53485;49.326;9.738;2022-07-09T01:01:55;2.63;;;1.00;;
9240;SDS011;53485;49.326;9.738;2022-07-09T01:04:22;3.60;;;1.10;;
9240;SDS011;53485;49.326;9.738;2022-07-09T01:06:50;2.57;;;1.10;;
9240;SDS011;53485;49.326;9.738;2022-07-09T01:09:17;2.00;;;0.90;;
9240;SDS011;53485;49.326;9.738;2022-07-09T01:11:44;2.23;;;1.10;;
9240;SDS011;53485;49.326;9.738;2022-07-09T01:14:10;1.17;;;0.83;;
9240;SDS011;53485;49.326;9.738;2022-07-09T01:16:38;3.57;;;0.90;;
9240;SDS011;53485;49.326;9.738;2022-07-09T01:19:05;1.90;;;0.90;;
9240;SDS011;53485;49.326;9.738;2022-07-09T01:21:32;2.33;;;0.70;;
9240;SDS011;53485;49.326;9.738;2022-07-09T01:23:59;3.07;;;1.13;;
9240;SDS011;53485;49.326;9.738;2022-07-09T01:26:26;1.37;;;0.80;;
9240;SDS011;53485;49.326;9.738;2022-07-09T01:28:53;2.67;;;1.10;;
9240;SDS011;53485;49.326;9.738;2022-07-09T01:31:20;2.80;;;0.87;;
9240;SDS011;53485;49.326;9.738;2022-07-09T01:33:48;2.43;;;1.00;;
9240;SDS011;53485;49.326;9.738;2022-07-09T01:36:15;2.20;;;0.90;;
9240;SDS011;53485;49.326;9.738;2022-07-09T01:38:42;3.23;;;1.17;;
9240;SDS011;53485;49.326;9.738;2022-07-09T01:41:10;4.30;;;1.00;;
9240;SDS011;53485;49.326;9.738;2022-07-09T01:43:37;2.17;;;0.87;;
9240;SDS011;53485;49.326;9.738;2022-07-09T01:46:05;2.70;;;1.20;;
9240;SDS011;53485;49.326;9.738;2022-07-09T01:48:34;2.07;;;0.90;;
9240;SDS011;53485;49.326;9.738;2022-07-09T01:50:59;2.27;;;0.90;;
9240;SDS011;53485;49.326;9.738;2022-07-09T01:53:26;2.03;;;1.30;;
9240;SDS011;53485;49.326;9.738;2022-07-09T01:55:53;1.00;;;0.90;;
9240;SDS011;53485;49.326;9.738;2022-07-09T01:58:21;3.47;;;1.43;;
9240;SDS011;53485;49.326;9.738;2022-07-09T02:00:48;1.00;;;0.90;;
9240;SDS011;53485;49.326;9.738;2022-07-09T02:03:16;2.97;;;1.50;;
9240;SDS011;53485;49.326;9.738;2022-07-09T02:05:43;5.07;;;1.70;;
9240;SDS011;53485;49.326;9.738;2022-07-09T02:08:11;1.80;;;1.23;;
9240;SDS011;53485;49.326;9.738;2022-07-09T02:10:38;3.03;;;1.17;;
9240;SDS011;53485;49.326;9.738;2022-07-09T02:13:05;3.97;;;1.60;;
9240;SDS011;53485;49.326;9.738;2022-07-09T02:15:33;1.77;;;1.30;;
9240;SDS011;53485;49.326;9.738;2022-07-09T02:18:00;3.40;;;1.53;;
9240;SDS011;53485;49.326;9.738;2022-07-09T02:20:27;6.87;;;1.80;;
9240;SDS011;53485;49.326;9.738;2022-07-09T02:22:54;3.10;;;1.27;;
9240;SDS011;53485;49.326;9.738;2022-07-09T02:25:22;2.77;;;1.30;;
9240;SDS011;53485;49.326;9.738;2022-07-09T02:27:49;1.70;;;1.57;;
9240;SDS011;53485;49.326;9.738;2022-07-09T02:30:17;2.17;;;1.50;;
9240;SDS011;53485;49.326;9.738;2022-07-09T02:32:44;2.77;;;1.20;;
9240;SDS011;53485;49.326;9.738;2022-07-09T02:35:11;2.27;;;1.50;;
9240;SDS011;53485;49.326;9.738;2022-07-09T02:37:39;1.57;;;1.20;;
9240;SDS011;53485;49.326;9.738;2022-07-09T02:40:06;3.27;;;1.30;;
9240;SDS011;53485;49.326;9.738;2022-07-09T02:42:34;2.93;;;1.60;;
9240;SDS011;53485;49.326;9.738;2022-07-09T02:45:02;2.60;;;1.53;;
9240;SDS011;53485;49.326;9.738;2022-07-09T02:47:29;2.80;;;1.60;;
9240;SDS011;53485;49.326;9.738;2022-07-09T02:49:56;3.80;;;1.37;;
9240;SDS011;53485;49.326;9.738;2022-07-09T02:52:23;2.40;;;1.50;;
9240;SDS011;53485;49.326;9.738;2022-07-09T02:54:51;2.60;;;1.57;;
9240;SDS011;53485;49.326;9.738;2022-07-09T02:57:18;3.53;;;1.90;;
9240;SDS011;53485;49.326;9.738;2022-07-09T02:59:46;4.13;;;1.80;;
9240;SDS011;53485;49.326;9.738;2022-07-09T03:02:13;3.37;;;2.13;;
9240;SDS011;53485;49.326;9.738;2022-07-09T03:04:40;5.20;;;2.30;;
9240;SDS011;53485;49.326;9.738;2022-07-09T03:07:08;1.60;;;1.50;;
9240;SDS011;53485;49.326;9.738;2022-07-09T03:09:35;2.80;;;1.67;;
9240;SDS011;53485;49.326;9.738;2022-07-09T03:12:03;3.90;;;1.43;;
9240;SDS011;53485;49.326;9.738;2022-07-09T03:14:31;3.77;;;1.60;;
9240;SDS011;53485;49.326;9.738;2022-07-09T03:16:58;5.90;;;1.80;;
9240;SDS011;53485;49.326;9.738;2022-07-09T03:19:25;4.80;;;1.40;;
9240;SDS011;53485;49.326;9.738;2022-07-09T03:21:53;3.73;;;1.63;;
9240;SDS011;53485;49.326;9.738;2022-07-09T03:24:20;2.77;;;1.40;;
9240;SDS011;53485;49.326;9.738;2022-07-09T03:26:47;4.73;;;1.53;;
9240;SDS011;53485;49.326;9.738;2022-07-09T03:29:15;2.87;;;2.07;;
9240;SDS011;53485;49.326;9.738;2022-07-09T03:31:42;3.67;;;2.00;;
9240;SDS011;53485;49.326;9.738;2022-07-09T03:34:09;2.03;;;1.33;;
9240;SDS011;53485;49.326;9.738;2022-07-09T03:36:37;3.57;;;1.60;;
9240;SDS011;53485;49.326;9.738;2022-07-09T03:39:04;2.63;;;1.60;;
9240;SDS011;53485;49.326;9.738;2022-07-09T03:41:31;4.17;;;1.73;;
9240;SDS011;53485;49.326;9.738;2022-07-09T03:43:59;4.80;;;1.60;;
9240;SDS011;53485;49.326;9.738;2022-07-09T03:46:26;3.40;;;1.60;;
9240;SDS011;53485;49.326;9.738;2022-07-09T03:48:54;2.23;;;1.30;;
9240;SDS011;53485;49.326;9.738;2022-07-09T03:51:21;2.60;;;1.40;;
9240;SDS011;53485;49.326;9.738;2022-07-09T03:53:48;3.20;;;1.20;;
9240;SDS011;53485;49.326;9.738;2022-07-09T03:56:16;3.20;;;1.40;;
9240;SDS011;53485;49.326;9.738;2022-07-09T03:58:43;3.00;;;1.90;;
9240;SDS011;53485;49.326;9.738;2022-07-09T04:01:10;2.90;;;1.30;;
9240;SDS011;53485;49.326;9.738;2022-07-09T04:03:38;1.47;;;1.07;;
9240;SDS011;53485;49.326;9.738;2022-07-09T04:06:05;1.90;;;1.20;;
9240;SDS011;53485;49.326;9.738;2022-07-09T04:08:32;2.77;;;1.00;;
9240;SDS011;53485;49.326;9.738;2022-07-09T04:11:00;3.93;;;1.00;;
9240;SDS011;53485;49.326;9.738;2022-07-09T04:13:27;4.70;;;1.37;;
9240;SDS011;53485;49.326;9.738;2022-07-09T04:15:54;2.27;;;1.00;;
9240;SDS011;53485;49.326;9.738;2022-07-09T04:18:21;2.80;;;1.03;;
9240;SDS011;53485;49.326;9.738;2022-07-09T04:20:49;1.97;;;1.00;;
9240;SDS011;53485;49.326;9.738;2022-07-09T04:23:16;1.30;;;1.00;;
9240;SDS011;53485;49.326;9.738;2022-07-09T04:25:44;2.40;;;0.90;;
9240;SDS011;53485;49.326;9.738;2022-07-09T04:28:11;1.53;;;1.20;;
9240;SDS011;53485;49.326;9.738;2022-07-09T04:30:38;3.30;;;1.10;;
9240;SDS011;53485;49.326;9.738;2022-07-09T04:33:05;2.30;;;1.10;;
9240;SDS011;53485;49.326;9.738;2022-07-09T04:35:33;3.33;;;1.07;;
9240;SDS011;53485;49.326;9.738;2022-07-09T04:38:00;0.93;;;0.93;;
9240;SDS011;53485;49.326;9.738;2022-07-09T04:40:27;2.10;;;1.13;;
9240;SDS011;53485;49.326;9.738;2022-07-09T04:42:54;2.60;;;1.30;;
9240;SDS011;53485;49.326;9.738;2022-07-09T04:45:22;1.57;;;1.10;;
9240;SDS011;53485;49.326;9.738;2022-07-09T04:47:49;4.27;;;1.03;;
9240;SDS011;53485;49.326;9.738;2022-07-09T04:50:16;1.60;;;1.00;;
9240;SDS011;53485;49.326;9.738;2022-07-09T04:52:44;1.20;;;0.90;;
9240;SDS011;53485;49.326;9.738;2022-07-09T04:55:11;2.87;;;1.10;;
9240;SDS011;53485;49.326;9.738;2022-07-09T04:57:38;2.33;;;0.97;;
9240;SDS011;53485;49.326;9.738;2022-07-09T05:00:06;1.83;;;0.80;;
9240;SDS011;53485;49.326;9.738;2022-07-09T05:02:34;2.77;;;1.20;;
9240;SDS011;53485;49.326;9.738;2022-07-09T05:05:01;2.97;;;1.30;;
9240;SDS011;53485;49.326;9.738;2022-07-09T05:07:29;1.50;;;1.00;;
9240;SDS011;53485;49.326;9.738;2022-07-09T05:09:56;4.37;;;1.60;;
9240;SDS011;53485;49.326;9.738;2022-07-09T05:12:23;2.40;;;1.30;;
9240;SDS011;53485;49.326;9.738;2022-07-09T05:14:50;2.30;;;0.90;;
9240;SDS011;53485;49.326;9.738;2022-07-09T05:17:18;2.00;;;1.30;;
9240;SDS011;53485;49.326;9.738;2022-07-09T05:19:45;3.40;;;1.70;;
9240;SDS011;53485;49.326;9.738;2022-07-09T05:22:13;1.50;;;1.00;;
9240;SDS011;53485;49.326;9.738;2022-07-09T05:24:40;3.80;;;1.40;;
9240;SDS011;53485;49.326;9.738;2022-07-09T05:27:08;3.77;;;1.33;;
9240;SDS011;53485;49.326;9.738;2022-07-09T05:29:35;2.63;;;1.17;;
9240;SDS011;53485;49.326;9.738;2022-07-09T05:32:02;3.10;;;1.70;;
9240;SDS011;53485;49.326;9.738;2022-07-09T05:34:29;4.00;;;1.40;;
9240;SDS011;53485;49.326;9.738;2022-07-09T05:36:56;2.47;;;1.47;;
9240;SDS011;53485;49.326;9.738;2022-07-09T05:39:24;2.87;;;1.67;;
9240;SDS011;53485;49.326;9.738;2022-07-09T05:41:51;2.57;;;1.30;;
9240;SDS011;53485;49.326;9.738;2022-07-09T05:44:18;3.47;;;1.13;;
9240;SDS011;53485;49.326;9.738;2022-07-09T05:46:46;1.77;;;1.17;;
9240;SDS011;53485;49.326;9.738;2022-07-09T05:49:13;2.73;;;1.13;;
9240;SDS011;53485;49.326;9.738;2022-07-09T05:51:40;1.57;;;0.87;;
9240;SDS011;53485;49.326;9.738;2022-07-09T05:54:08;1.83;;;1.07;;
9240;SDS011;53485;49.326;9.738;2022-07-09T05:56:35;1.40;;;1.10;;
9240;SDS011;53485;49.326;9.738;2022-07-09T05:59:03;1.13;;;0.90;;
9240;SDS011;53485;49.326;9.738;2022-07-09T06:01:30;3.00;;;1.20;;
9240;SDS011;53485;49.326;9.738;2022-07-09T06:03:56;4.00;;;1.27;;
9240;SDS011;53485;49.326;9.738;2022-07-09T06:06:24;4.00;;;1.00;;
9240;SDS011;53485;49.326;9.738;2022-07-09T06:08:51;1.93;;;0.90;;
9240;SDS011;53485;49.326;9.738;2022-07-09T06:11:18;3.83;;;1.10;;
9240;SDS011;53485;49.326;9.738;2022-07-09T06:13:46;1.67;;;1.00;;
9240;SDS011;53485;49.326;9.738;2022-07-09T06:16:13;0.97;;;0.87;;
9240;SDS011;53485;49.326;9.738;2022-07-09T06:18:40;2.57;;;0.97;;
9240;SDS011;53485;49.326;9.738;2022-07-09T06:21:07;4.13;;;1.10;;
9240;SDS011;53485;49.326;9.738;2022-07-09T06:23:35;2.37;;;1.00;;
9240;SDS011;53485;49.326;9.738;2022-07-09T06:26:02;3.17;;;1.10;;
9240;SDS011;53485;49.326;9.738;2022-07-09T06:28:30;3.93;;;1.40;;
9240;SDS011;53485;49.326;9.738;2022-07-09T06:30:57;1.33;;;1.00;;
9240;SDS011;53485;49.326;9.738;2022-07-09T06:33:24;3.43;;;1.00;;
9240;SDS011;53485;49.326;9.738;2022-07-09T06:35:51;1.93;;;1.10;;
9240;SDS011;53485;49.326;9.738;2022-07-09T06:38:19;5.00;;;1.03;;
9240;SDS011;53485;49.326;9.738;2022-07-09T06:40:46;2.00;;;1.10;;
9240;SDS011;53485;49.326;9.738;2022-07-09T06:43:14;2.93;;;0.90;;
9240;SDS011;53485;49.326;9.738;2022-07-09T06:45:41;1.60;;;0.73;;
9240;SDS011;53485;49.326;9.738;2022-07-09T06:48:08;4.70;;;0.90;;
9240;SDS011;53485;49.326;9.738;2022-07-09T06:50:36;1.87;;;0.90;;
9240;SDS011;53485;49.326;9.738;2022-07-09T06:53:03;2.17;;;0.70;;
9240;SDS011;53485;49.326;9.738;2022-07-09T06:55:30;1.20;;;0.73;;
9240;SDS011;53485;49.326;9.738;2022-07-09T06:57:57;1.53;;;0.80;;
9240;SDS011;53485;49.326;9.738;2022-07-09T07:00:24;2.83;;;0.90;;
9240;SDS011;53485;49.326;9.738;2022-07-09T07:02:52;3.20;;;0.80;;
9240;SDS011;53485;49.326;9.738;2022-07-09T07:05:19;1.40;;;0.70;;
9240;SDS011;53485;49.326;9.738;2022-07-09T07:07:46;0.80;;;0.70;;
9240;SDS011;53485;49.326;9.738;2022-07-09T07:10:14;1.00;;;0.80;;
9240;SDS011;53485;49.326;9.738;2022-07-09T07:12:41;1.00;;;0.70;;
9240;SDS011;53485;49.326;9.738;2022-07-09T07:15:09;0.90;;;0.70;;
9240;SDS011;53485;49.326;9.738;2022-07-09T07:17:36;1.00;;;0.60;;
9240;SDS011;53485;49.326;9.738;2022-07-09T07:20:04;1.93;;;0.60;;
9240;SDS011;53485;49.326;9.738;2022-07-09T07:22:32;2.07;;;0.73;;
9240;SDS011;53485;49.326;9.738;2022-07-09T07:24:59;2.27;;;0.87;;
9240;SDS011;53485;49.326;9.738;2022-07-09T07:27:26;3.67;;;0.70;;
9240;SDS011;53485;49.326;9.738;2022-07-09T07:29:54;2.03;;;0.70;;
9240;SDS011;53485;49.326;9.738;2022-07-09T07:32:21;1.73;;;0.70;;
9240;SDS011;53485;49.326;9.738;2022-07-09T07:34:49;2.57;;;0.70;;
9240;SDS011;53485;49.326;9.738;2022-07-09T07:37:16;2.30;;;0.60;;
9240;SDS011;53485;49.326;9.738;2022-07-09T07:39:43;1.77;;;0.50;;
9240;SDS011;53485;49.326;9.738;2022-07-09T07:42:10;3.97;;;0.77;;
9240;SDS011;53485;49.326;9.738;2022-07-09T07:44:38;2.20;;;0.77;;
9240;SDS011;53485;49.326;9.738;2022-07-09T07:47:05;1.10;;;0.70;;
9240;SDS011;53485;49.326;9.738;2022-07-09T07:49:32;3.50;;;0.80;;
9240;SDS011;53485;49.326;9.738;2022-07-09T07:52:00;2.17;;;0.80;;
9240;SDS011;53485;49.326;9.738;2022-07-09T07:54:27;1.47;;;0.60;;
9240;SDS011;53485;49.326;9.738;2022-07-09T07:56:54;1.90;;;0.80;;
9240;SDS011;53485;49.326;9.738;2022-07-09T07:59:22;0.97;;;0.70;;
9240;SDS011;53485;49.326;9.738;2022-07-09T08:01:49;3.97;;;0.90;;
9240;SDS011;53485;49.326;9.738;2022-07-09T08:04:16;3.33;;;0.70;;
9240;SDS011;53485;49.326;9.738;2022-07-09T08:06:44;1.60;;;0.70;;
9240;SDS011;53485;49.326;9.738;2022-07-09T08:09:11;1.53;;;0.67;;
9240;SDS011;53485;49.326;9.738;2022-07-09T08:11:39;2.03;;;0.87;;
9240;SDS011;53485;49.326;9.738;2022-07-09T08:14:06;1.73;;;0.70;;
9240;SDS011;53485;49.326;9.738;2022-07-09T08:16:33;1.77;;;0.80;;
9240;SDS011;53485;49.326;9.738;2022-07-09T08:19:00;0.97;;;0.60;;
9240;SDS011;53485;49.326;9.738;2022-07-09T08:21:28;0.87;;;0.67;;
9240;SDS011;53485;49.326;9.738;2022-07-09T08:23:55;1.20;;;0.60;;
9240;SDS011;53485;49.326;9.738;2022-07-09T08:26:24;1.30;;;0.60;;
9240;SDS011;53485;49.326;9.738;2022-07-09T08:28:50;2.20;;;0.90;;
9240;SDS011;53485;49.326;9.738;2022-07-09T08:31:17;1.27;;;0.60;;
9240;SDS011;53485;49.326;9.738;2022-07-09T08:33:43;1.97;;;0.50;;
9240;SDS011;53485;49.326;9.738;2022-07-09T08:36:10;1.20;;;0.63;;
9240;SDS011;53485;49.326;9.738;2022-07-09T08:38:37;1.40;;;0.70;;
9240;SDS011;53485;49.326;9.738;2022-07-09T08:41:05;1.20;;;0.60;;
9240;SDS011;53485;49.326;9.738;2022-07-09T08:43:32;2.47;;;0.73;;
9240;SDS011;53485;49.326;9.738;2022-07-09T08:45:58;1.80;;;0.70;;
9240;SDS011;53485;49.326;9.738;2022-07-09T08:48:25;2.80;;;0.80;;
9240;SDS011;53485;49.326;9.738;2022-07-09T08:50:52;3.17;;;0.73;;
9240;SDS011;53485;49.326;9.738;2022-07-09T08:53:20;2.83;;;0.90;;
9240;SDS011;53485;49.326;9.738;2022-07-09T08:55:47;1.73;;;1.00;;
9240;SDS011;53485;49.326;9.738;2022-07-09T08:58:14;2.83;;;1.10;;
9240;SDS011;53485;49.326;9.738;2022-07-09T09:00:42;2.00;;;0.70;;
9240;SDS011;53485;49.326;9.738;2022-07-09T09:03:10;1.17;;;0.80;;
9240;SDS011;53485;49.326;9.738;2022-07-09T09:05:38;2.10;;;0.88;;
9240;SDS011;53485;49.326;9.738;2022-07-09T09:10:45;2.50;;;0.77;;
9240;SDS011;53485;49.326;9.738;2022-07-09T09:13:13;4.25;;;0.90;;
9240;SDS011;53485;49.326;9.738;2022-07-09T09:15:39;0.85;;;0.68;;
9240;SDS011;53485;49.326;9.738;2022-07-09T09:18:07;1.05;;;0.75;;
9240;SDS011;53485;49.326;9.738;2022-07-09T09:20:34;3.58;;;0.62;;
9240;SDS011;53485;49.326;9.738;2022-07-09T09:23:03;2.35;;;0.70;;
9240;SDS011;53485;49.326;9.738;2022-07-09T09:25:30;2.08;;;0.80;;
9240;SDS011;53485;49.326;9.738;2022-07-09T09:27:58;1.20;;;0.60;;
9240;SDS011;53485;49.326;9.738;2022-07-09T09:30:25;1.65;;;0.75;;
9240;SDS011;53485;49.326;9.738;2022-07-09T09:33:01;1.30;;;0.60;;
9240;SDS011;53485;49.326;9.738;2022-07-09T09:35:27;2.17;;;0.90;;
9240;SDS011;53485;49.326;9.738;2022-07-09T09:37:55;3.90;;;0.62;;
9240;SDS011;53485;49.326;9.738;2022-07-09T09:40:23;2.92;;;0.70;;
9240;SDS011;53485;49.326;9.738;2022-07-09T09:42:50;1.05;;;0.75;;
9240;SDS011;53485;49.326;9.738;2022-07-09T09:45:17;0.50;;;0.50;;
9240;SDS011;53485;49.326;9.738;2022-07-09T09:47:46;1.45;;;0.50;;
9240;SDS011;53485;49.326;9.738;2022-07-09T09:50:16;3.80;;;0.55;;
9240;SDS011;53485;49.326;9.738;2022-07-09T09:52:42;0.90;;;0.70;;
9240;SDS011;53485;49.326;9.738;2022-07-09T09:55:09;3.03;;;0.70;;
9240;SDS011;53485;49.326;9.738;2022-07-09T09:57:36;1.07;;;0.70;;
9240;SDS011;53485;49.326;9.738;2022-07-09T10:00:03;2.13;;;0.70;;
9240;SDS011;53485;49.326;9.738;2022-07-09T10:02:31;3.40;;;0.77;;
9240;SDS011;53485;49.326;9.738;2022-07-09T10:04:58;1.53;;;0.70;;
9240;SDS011;53485;49.326;9.738;2022-07-09T10:07:25;1.37;;;0.60;;
9240;SDS011;53485;49.326;9.738;2022-07-09T10:09:54;2.53;;;0.80;;
9240;SDS011;53485;49.326;9.738;2022-07-09T10:12:29;0.87;;;0.70;;
9240;SDS011;53485;49.326;9.738;2022-07-09T10:14:55;1.23;;;0.60;;
9240;SDS011;53485;49.326;9.738;2022-07-09T10:17:23;1.87;;;0.70;;
9240;SDS011;53485;49.326;9.738;2022-07-09T10:19:54;2.50;;;0.70;;
9240;SDS011;53485;49.326;9.738;2022-07-09T10:22:21;2.77;;;0.60;;
9240;SDS011;53485;49.326;9.738;2022-07-09T10:24:49;0.93;;;0.73;;
9240;SDS011;53485;49.326;9.738;2022-07-09T10:27:14;3.23;;;0.60;;
9240;SDS011;53485;49.326;9.738;2022-07-09T10:32:24;1.27;;;0.80;;
9240;SDS011;53485;49.326;9.738;2022-07-09T10:34:55;1.23;;;0.80;;
9240;SDS011;53485;49.326;9.738;2022-07-09T10:37:29;1.67;;;1.00;;
9240;SDS011;53485;49.326;9.738;2022-07-09T10:39:52;1.00;;;0.80;;
9240;SDS011;53485;49.326;9.738;2022-07-09T10:42:19;1.53;;;0.80;;
9240;SDS011;53485;49.326;9.738;2022-07-09T10:44:45;2.87;;;0.80;;
9240;SDS011;53485;49.326;9.738;2022-07-09T10:47:12;3.30;;;0.97;;
9240;SDS011;53485;49.326;9.738;2022-07-09T10:49:39;1.40;;;1.30;;
9240;SDS011;53485;49.326;9.738;2022-07-09T10:52:07;1.20;;;1.10;;
9240;SDS011;53485;49.326;9.738;2022-07-09T10:54:44;3.20;;;1.40;;
9240;SDS011;53485;49.326;9.738;2022-07-09T10:57:01;1.00;;;0.90;;
9240;SDS011;53485;49.326;9.738;2022-07-09T10:59:28;2.90;;;0.93;;
9240;SDS011;53485;49.326;9.738;2022-07-09T11:01:55;2.27;;;1.27;;
9240;SDS011;53485;49.326;9.738;2022-07-09T11:04:24;1.83;;;0.90;;
9240;SDS011;53485;49.326;9.738;2022-07-09T11:06:50;1.40;;;1.10;;
9240;SDS011;53485;49.326;9.738;2022-07-09T11:09:18;2.37;;;1.37;;
9240;SDS011;53485;49.326;9.738;2022-07-09T11:11:45;1.20;;;0.83;;
9240;SDS011;53485;49.326;9.738;2022-07-09T11:14:13;1.30;;;1.00;;
9240;SDS011;53485;49.326;9.738;2022-07-09T11:16:40;2.40;;;0.90;;
9240;SDS011;53485;49.326;9.738;2022-07-09T11:19:13;1.80;;;0.93;;
9240;SDS011;53485;49.326;9.738;2022-07-09T11:21:39;1.23;;;0.90;;
9240;SDS011;53485;49.326;9.738;2022-07-09T11:24:12;3.17;;;1.03;;
9240;SDS011;53485;49.326;9.738;2022-07-09T11:26:41;1.97;;;0.80;;
9240;SDS011;53485;49.326;9.738;2022-07-09T11:29:08;1.50;;;0.70;;
9240;SDS011;53485;49.326;9.738;2022-07-09T11:31:35;2.27;;;0.90;;
9240;SDS011;53485;49.326;9.738;2022-07-09T11:34:02;4.10;;;1.03;;
9240;SDS011;53485;49.326;9.738;2022-07-09T11:36:35;2.10;;;1.00;;
9240;SDS011;53485;49.326;9.738;2022-07-09T11:39:01;1.50;;;0.73;;
9240;SDS011;53485;49.326;9.738;2022-07-09T11:41:38;4.53;;;1.30;;
9240;SDS011;53485;49.326;9.738;2022-07-09T11:43:55;1.17;;;1.00;;
9240;SDS011;53485;49.326;9.738;2022-07-09T11:46:22;2.27;;;1.00;;
9240;SDS011;53485;49.326;9.738;2022-07-09T11:48:50;2.53;;;1.17;;
9240;SDS011;53485;49.326;9.738;2022-07-09T11:51:35;1.30;;;1.00;;
9240;SDS011;53485;49.326;9.738;2022-07-09T11:54:02;1.27;;;0.83;;
9240;SDS011;53485;49.326;9.738;2022-07-09T11:59:05;2.10;;;1.00;;
9240;SDS011;53485;49.326;9.738;2022-07-09T12:01:33;1.30;;;1.00;;
9240;SDS011;53485;49.326;9.738;2022-07-09T12:04:00;1.52;;;1.05;;
9240;SDS011;53485;49.326;9.738;2022-07-09T12:06:28;1.25;;;1.00;;
9240;SDS011;53485;49.326;9.738;2022-07-09T12:08:58;1.08;;;0.90;;
9240;SDS011;53485;49.326;9.738;2022-07-09T12:11:28;4.72;;;1.02;;
9240;SDS011;53485;49.326;9.738;2022-07-09T12:13:54;3.72;;;0.90;;
9240;SDS011;53485;49.326;9.738;2022-07-09T12:16:21;0.90;;;0.90;;
9240;SDS011;53485;49.326;9.738;2022-07-09T12:18:49;1.40;;;0.82;;
9240;SDS011;53485;49.326;9.738;2022-07-09T12:21:17;1.85;;;0.95;;
9240;SDS011;53485;49.326;9.738;2022-07-09T12:23:45;1.17;;;1.08;;
9240;SDS011;53485;49.326;9.738;2022-07-09T12:26:12;1.43;;;1.07;;
9240;SDS011;53485;49.326;9.738;2022-07-09T12:28:40;2.20;;;1.00;;
9240;SDS011;53485;49.326;9.738;2022-07-09T12:31:07;1.33;;;1.20;;
9240;SDS011;53485;49.326;9.738;2022-07-09T12:33:35;1.20;;;0.90;;
9240;SDS011;53485;49.326;9.738;2022-07-09T12:36:02;1.23;;;1.13;;
9240;SDS011;53485;49.326;9.738;2022-07-09T12:38:30;1.90;;;1.30;;
9240;SDS011;53485;49.326;9.738;2022-07-09T12:40:57;2.83;;;1.00;;
9240;SDS011;53485;49.326;9.738;2022-07-09T12:43:24;1.00;;;0.90;;
9240;SDS011;53485;49.326;9.738;2022-07-09T12:45:51;2.97;;;1.00;;
9240;SDS011;53485;49.326;9.738;2022-07-09T12:48:19;2.20;;;1.10;;
9240;SDS011;53485;49.326;9.738;2022-07-09T12:50:46;1.83;;;1.00;;
9240;SDS011;53485;49.326;9.738;2022-07-09T12:53:14;5.07;;;1.10;;
9240;SDS011;53485;49.326;9.738;2022-07-09T12:55:41;2.20;;;1.00;;
9240;SDS011;53485;49.326;9.738;2022-07-09T12:58:08;4.67;;;1.23;;
9240;SDS011;53485;49.326;9.738;2022-07-09T13:00:36;4.87;;;1.00;;
9240;SDS011;53485;49.326;9.738;2022-07-09T13:03:03;2.93;;;1.20;;
9240;SDS011;53485;49.326;9.738;2022-07-09T13:05:30;1.77;;;1.20;;
9240;SDS011;53485;49.326;9.738;2022-07-09T13:07:58;1.87;;;1.10;;
9240;SDS011;53485;49.326;9.738;2022-07-09T13:10:25;2.30;;;1.20;;
9240;SDS011;53485;49.326;9.738;2022-07-09T13:12:53;3.87;;;1.13;;
9240;SDS011;53485;49.326;9.738;2022-07-09T13:15:20;6.20;;;1.20;;
9240;SDS011;53485;49.326;9.738;2022-07-09T13:17:48;3.03;;;1.00;;
9240;SDS011;53485;49.326;9.738;2022-07-09T13:20:14;3.67;;;1.10;;
9240;SDS011;53485;49.326;9.738;2022-07-09T13:22:41;1.83;;;0.93;;
9240;SDS011;53485;49.326;9.738;2022-07-09T13:25:08;5.80;;;1.23;;
9240;SDS011;53485;49.326;9.738;2022-07-09T13:27:36;1.40;;;1.00;;
9240;SDS011;53485;49.326;9.738;2022-07-09T13:30:04;3.23;;;1.00;;
9240;SDS011;53485;49.326;9.738;2022-07-09T13:32:31;1.43;;;0.80;;
9240;SDS011;53485;49.326;9.738;2022-07-09T13:34:59;1.83;;;0.80;;
9240;SDS011;53485;49.326;9.738;2022-07-09T13:37:26;1.30;;;1.00;;
9240;SDS011;53485;49.326;9.738;2022-07-09T13:39:53;0.87;;;0.87;;
9240;SDS011;53485;49.326;9.738;2022-07-09T13:42:21;1.60;;;1.20;;
9240;SDS011;53485;49.326;9.738;2022-07-09T13:44:48;1.83;;;1.00;;
9240;SDS011;53485;49.326;9.738;2022-07-09T13:47:15;1.43;;;1.23;;
9240;SDS011;53485;49.326;9.738;2022-07-09T13:49:43;3.03;;;1.10;;
9240;SDS011;53485;49.326;9.738;2022-07-09T13:52:10;7.27;;;1.37;;
9240;SDS011;53485;49.326;9.738;2022-07-09T13:54:37;10.60;;;2.13;;
9240;SDS011;53485;49.326;9.738;2022-07-09T13:57:05;1.57;;;0.90;;
9240;SDS011;53485;49.326;9.738;2022-07-09T13:59:32;1.23;;;0.77;;
9240;SDS011;53485;49.326;9.738;2022-07-09T14:02:00;2.97;;;0.90;;
9240;SDS011;53485;49.326;9.738;2022-07-09T14:04:27;4.70;;;1.33;;
9240;SDS011;53485;49.326;9.738;2022-07-09T14:06:55;1.20;;;1.00;;
9240;SDS011;53485;49.326;9.738;2022-07-09T14:09:23;4.45;;;1.20;;
9240;SDS011;53485;49.326;9.738;2022-07-09T14:11:51;1.35;;;0.90;;
9240;SDS011;53485;49.326;9.738;2022-07-09T14:14:19;1.73;;;0.98;;
9240;SDS011;53485;49.326;9.738;2022-07-09T14:16:47;2.10;;;0.90;;
9240;SDS011;53485;49.326;9.738;2022-07-09T14:19:14;2.83;;;1.05;;
9240;SDS011;53485;49.326;9.738;2022-07-09T14:21:42;3.08;;;0.80;;
9240;SDS011;53485;49.326;9.738;2022-07-09T14:24:10;1.20;;;0.90;;
9240;SDS011;53485;49.326;9.738;2022-07-09T14:26:38;1.75;;;1.00;;
9240;SDS011;53485;49.326;9.738;2022-07-09T14:29:05;3.67;;;1.10;;
9240;SDS011;53485;49.326;9.738;2022-07-09T14:31:33;1.95;;;0.90;;
9240;SDS011;53485;49.326;9.738;2022-07-09T14:34:01;0.98;;;0.80;;
9240;SDS011;53485;49.326;9.738;2022-07-09T14:36:28;1.27;;;1.12;;
9240;SDS011;53485;49.326;9.738;2022-07-09T14:38:56;3.58;;;1.10;;
9240;SDS011;53485;49.326;9.738;2022-07-09T14:41:23;1.20;;;1.05;;
9240;SDS011;53485;49.326;9.738;2022-07-09T14:43:51;1.15;;;1.05;;
9240;SDS011;53485;49.326;9.738;2022-07-09T14:46:19;1.10;;;1.00;;
9240;SDS011;53485;49.326;9.738;2022-07-09T14:48:47;2.10;;;1.00;;
9240;SDS011;53485;49.326;9.738;2022-07-09T14:51:15;1.62;;;0.80;;
9240;SDS011;53485;49.326;9.738;2022-07-09T14:53:42;2.45;;;1.00;;
9240;SDS011;53485;49.326;9.738;2022-07-09T14:56:10;0.90;;;0.82;;
9240;SDS011;53485;49.326;9.738;2022-07-09T14:58:38;0.80;;;0.80;;
9240;SDS011;53485;49.326;9.738;2022-07-09T15:01:06;1.27;;;0.73;;
9240;SDS011;53485;49.326;9.738;2022-07-09T15:03:34;1.48;;;0.90;;
9240;SDS011;53485;49.326;9.738;2022-07-09T15:06:01;2.05;;;0.80;;
9240;SDS011;53485;49.326;9.738;2022-07-09T15:08:29;0.93;;;0.77;;